sensor_id;sensor_type;location;lat;lon;timestamp;temperature;humidity
3208;DHT22;1616;52.394;9.756;2022-09-09T00:03:53;15.90;10.40
3208;DHT22;1616;52.394;9.756;2022-09-09T00:06:32;15.90;10.00
3208;DHT22;1616;52.394;9.756;2022-09-09T00:09:08;15.90;10.30
3208;DHT22;1616;52.394;9.756;2022-09-09T00:11:51;15.90;10.60
3208;DHT22;1616;52.394;9.756;2022-09-09T00:17:00;15.80;10.50
3208;DHT22;1616;52.394;9.756;2022-09-09T00:19:37;15.80;10.10
3208;DHT22;1616;52.394;9.756;2022-09-09T00:22:22;15.80;10.70
3208;DHT22;1616;52.394;9.756;2022-09-09T00:24:53;15.80;10.00
3208;DHT22;1616;52.394;9.756;2022-09-09T00:27:36;15.70;10.30
3208;DHT22;1616;52.394;9.756;2022-09-09T00:32:46;15.70;10.20
3208;DHT22;1616;52.394;9.756;2022-09-09T00:35:22;15.70;10.10
3208;DHT22;1616;52.394;9.756;2022-09-09T00:37:52;15.70;10.20
3208;DHT22;1616;52.394;9.756;2022-09-09T00:40:48;15.60;10.00
3208;DHT22;1616;52.394;9.756;2022-09-09T00:43:28;15.60;10.70
3208;DHT22;1616;52.394;9.756;2022-09-09T00:46:32;15.60;10.80
3208;DHT22;1616;52.394;9.756;2022-09-09T00:54:38;15.60;10.20
3208;DHT22;1616;52.394;9.756;2022-09-09T01:00:28;15.60;10.50
3208;DHT22;1616;52.394;9.756;2022-09-09T01:05:39;15.70;10.70
3208;DHT22;1616;52.394;9.756;2022-09-09T01:08:21;15.70;10.10
3208;DHT22;1616;52.394;9.756;2022-09-09T01:10:54;15.70;9.20
3208;DHT22;1616;52.394;9.756;2022-09-09T01:13:28;15.60;9.00
3208;DHT22;1616;52.394;9.756;2022-09-09T01:16:00;15.60;9.00
3208;DHT22;1616;52.394;9.756;2022-09-09T01:18:35;15.50;9.50
3208;DHT22;1616;52.394;9.756;2022-09-09T01:21:12;15.50;9.40
3208;DHT22;1616;52.394;9.756;2022-09-09T01:26:30;15.50;10.20
3208;DHT22;1616;52.394;9.756;2022-09-09T01:28:57;15.60;10.70
3208;DHT22;1616;52.394;9.756;2022-09-09T01:34:14;15.70;10.40
3208;DHT22;1616;52.394;9.756;2022-09-09T01:36:52;15.90;10.80
3208;DHT22;1616;52.394;9.756;2022-09-09T01:39:19;15.90;10.70
3208;DHT22;1616;52.394;9.756;2022-09-09T01:41:45;16.10;10.60
3208;DHT22;1616;52.394;9.756;2022-09-09T01:44:12;16.20;9.50
3208;DHT22;1616;52.394;9.756;2022-09-09T01:46:38;16.20;8.50
3208;DHT22;1616;52.394;9.756;2022-09-09T01:49:06;16.20;8.00
3208;DHT22;1616;52.394;9.756;2022-09-09T01:51:33;16.20;7.30
3208;DHT22;1616;52.394;9.756;2022-09-09T01:54:00;16.10;6.90
3208;DHT22;1616;52.394;9.756;2022-09-09T02:02:17;15.80;6.80
3208;DHT22;1616;52.394;9.756;2022-09-09T02:04:48;15.80;7.70
3208;DHT22;1616;52.394;9.756;2022-09-09T02:07:23;15.80;7.40
3208;DHT22;1616;52.394;9.756;2022-09-09T02:09:59;15.70;7.50
3208;DHT22;1616;52.394;9.756;2022-09-09T02:12:27;15.70;7.00
3208;DHT22;1616;52.394;9.756;2022-09-09T02:15:05;15.60;7.00
3208;DHT22;1616;52.394;9.756;2022-09-09T02:17:36;15.50;7.50
3208;DHT22;1616;52.394;9.756;2022-09-09T02:20:07;15.50;7.50
3208;DHT22;1616;52.394;9.756;2022-09-09T02:22:35;15.40;7.40
3208;DHT22;1616;52.394;9.756;2022-09-09T02:25:06;15.40;8.20
3208;DHT22;1616;52.394;9.756;2022-09-09T02:27:32;15.40;8.10
3208;DHT22;1616;52.394;9.756;2022-09-09T02:29:59;15.40;8.10
3208;DHT22;1616;52.394;9.756;2022-09-09T02:32:29;15.30;8.20
3208;DHT22;1616;52.394;9.756;2022-09-09T02:35:17;15.30;8.70
3208;DHT22;1616;52.394;9.756;2022-09-09T02:37:44;15.30;8.70
3208;DHT22;1616;52.394;9.756;2022-09-09T02:40:14;15.30;9.20
3208;DHT22;1616;52.394;9.756;2022-09-09T02:42:45;15.30;9.90
3208;DHT22;1616;52.394;9.756;2022-09-09T02:45:14;15.40;10.20
3208;DHT22;1616;52.394;9.756;2022-09-09T02:48:22;15.40;10.00
3208;DHT22;1616;52.394;9.756;2022-09-09T02:51:04;15.40;10.20
3208;DHT22;1616;52.394;9.756;2022-09-09T02:53:49;15.50;9.60
3208;DHT22;1616;52.394;9.756;2022-09-09T02:56:21;15.50;10.00
3208;DHT22;1616;52.394;9.756;2022-09-09T02:58:49;15.50;10.10
3208;DHT22;1616;52.394;9.756;2022-09-09T03:01:17;15.50;9.70
3208;DHT22;1616;52.394;9.756;2022-09-09T03:03:43;15.50;10.00
3208;DHT22;1616;52.394;9.756;2022-09-09T03:06:10;15.50;10.60
3208;DHT22;1616;52.394;9.756;2022-09-09T03:08:37;15.60;11.30
3208;DHT22;1616;52.394;9.756;2022-09-09T03:11:03;15.70;10.70
3208;DHT22;1616;52.394;9.756;2022-09-09T03:13:29;15.70;10.70
3208;DHT22;1616;52.394;9.756;2022-09-09T03:15:55;15.80;10.80
3208;DHT22;1616;52.394;9.756;2022-09-09T03:18:21;15.80;11.00
3208;DHT22;1616;52.394;9.756;2022-09-09T03:20:47;15.90;11.40
3208;DHT22;1616;52.394;9.756;2022-09-09T03:23:16;16.00;11.70
3208;DHT22;1616;52.394;9.756;2022-09-09T03:25:51;16.10;11.20
3208;DHT22;1616;52.394;9.756;2022-09-09T03:28:18;16.10;10.40
3208;DHT22;1616;52.394;9.756;2022-09-09T03:30:44;16.10;10.60
3208;DHT22;1616;52.394;9.756;2022-09-09T03:33:10;16.20;10.70
3208;DHT22;1616;52.394;9.756;2022-09-09T03:35:35;16.30;10.90
3208;DHT22;1616;52.394;9.756;2022-09-09T03:38:01;16.30;11.00
3208;DHT22;1616;52.394;9.756;2022-09-09T03:40:27;16.40;10.00
3208;DHT22;1616;52.394;9.756;2022-09-09T03:42:52;16.40;9.70
3208;DHT22;1616;52.394;9.756;2022-09-09T03:45:18;16.40;9.60
3208;DHT22;1616;52.394;9.756;2022-09-09T03:47:43;16.40;9.70
3208;DHT22;1616;52.394;9.756;2022-09-09T03:50:10;16.40;9.50
3208;DHT22;1616;52.394;9.756;2022-09-09T03:52:40;16.40;9.50
3208;DHT22;1616;52.394;9.756;2022-09-09T03:55:07;16.40;9.10
3208;DHT22;1616;52.394;9.756;2022-09-09T03:57:33;16.30;9.70
3208;DHT22;1616;52.394;9.756;2022-09-09T04:00:05;16.30;9.50
3208;DHT22;1616;52.394;9.756;2022-09-09T04:02:31;16.30;9.40
3208;DHT22;1616;52.394;9.756;2022-09-09T04:04:56;16.20;10.40
3208;DHT22;1616;52.394;9.756;2022-09-09T04:07:23;16.30;10.90
3208;DHT22;1616;52.394;9.756;2022-09-09T04:09:49;16.40;11.00
3208;DHT22;1616;52.394;9.756;2022-09-09T04:12:15;16.40;10.20
3208;DHT22;1616;52.394;9.756;2022-09-09T04:14:43;16.40;10.20
3208;DHT22;1616;52.394;9.756;2022-09-09T04:17:08;16.40;10.40
3208;DHT22;1616;52.394;9.756;2022-09-09T04:19:35;16.40;10.70
3208;DHT22;1616;52.394;9.756;2022-09-09T04:22:01;16.40;10.50
3208;DHT22;1616;52.394;9.756;2022-09-09T04:24:26;16.40;10.00
3208;DHT22;1616;52.394;9.756;2022-09-09T04:26:52;16.40;9.80
3208;DHT22;1616;52.394;9.756;2022-09-09T04:29:19;16.40;10.10
3208;DHT22;1616;52.394;9.756;2022-09-09T04:31:45;16.40;10.80
3208;DHT22;1616;52.394;9.756;2022-09-09T04:34:10;16.40;11.50
3208;DHT22;1616;52.394;9.756;2022-09-09T04:36:36;16.50;10.80
3208;DHT22;1616;52.394;9.756;2022-09-09T04:39:02;16.50;10.30
3208;DHT22;1616;52.394;9.756;2022-09-09T04:41:28;16.50;10.50
3208;DHT22;1616;52.394;9.756;2022-09-09T04:43:54;16.50;11.10
3208;DHT22;1616;52.394;9.756;2022-09-09T04:46:21;16.50;11.20
3208;DHT22;1616;52.394;9.756;2022-09-09T04:48:48;16.60;12.20
3208;DHT22;1616;52.394;9.756;2022-09-09T04:51:15;16.60;12.20
3208;DHT22;1616;52.394;9.756;2022-09-09T04:53:41;16.70;12.30
3208;DHT22;1616;52.394;9.756;2022-09-09T04:56:14;16.80;12.90
3208;DHT22;1616;52.394;9.756;2022-09-09T04:58:41;17.00;12.90
3208;DHT22;1616;52.394;9.756;2022-09-09T05:01:14;17.00;12.40
3208;DHT22;1616;52.394;9.756;2022-09-09T05:03:40;17.10;12.20
3208;DHT22;1616;52.394;9.756;2022-09-09T05:06:11;17.20;11.60
3208;DHT22;1616;52.394;9.756;2022-09-09T05:08:38;17.30;11.30
3208;DHT22;1616;52.394;9.756;2022-09-09T05:11:15;17.20;11.10
3208;DHT22;1616;52.394;9.756;2022-09-09T05:13:43;17.30;10.60
3208;DHT22;1616;52.394;9.756;2022-09-09T05:16:08;17.20;10.10
3208;DHT22;1616;52.394;9.756;2022-09-09T05:18:40;17.10;9.90
3208;DHT22;1616;52.394;9.756;2022-09-09T05:21:07;17.00;9.90
3208;DHT22;1616;52.394;9.756;2022-09-09T05:23:33;17.00;9.80
3208;DHT22;1616;52.394;9.756;2022-09-09T05:26:00;16.90;9.60
3208;DHT22;1616;52.394;9.756;2022-09-09T05:28:26;16.80;9.70
3208;DHT22;1616;52.394;9.756;2022-09-09T05:31:00;16.70;10.00
3208;DHT22;1616;52.394;9.756;2022-09-09T05:33:29;16.60;10.30
3208;DHT22;1616;52.394;9.756;2022-09-09T05:35:57;16.50;10.70
3208;DHT22;1616;52.394;9.756;2022-09-09T05:38:23;16.50;11.20
3208;DHT22;1616;52.394;9.756;2022-09-09T05:40:52;16.50;11.60
3208;DHT22;1616;52.394;9.756;2022-09-09T05:43:19;16.40;12.00
3208;DHT22;1616;52.394;9.756;2022-09-09T05:45:46;16.40;12.00
3208;DHT22;1616;52.394;9.756;2022-09-09T05:48:16;16.40;12.30
3208;DHT22;1616;52.394;9.756;2022-09-09T05:50:42;16.30;12.50
3208;DHT22;1616;52.394;9.756;2022-09-09T05:53:10;16.30;12.60
3208;DHT22;1616;52.394;9.756;2022-09-09T05:55:36;16.30;12.80
3208;DHT22;1616;52.394;9.756;2022-09-09T05:58:01;16.30;13.10
3208;DHT22;1616;52.394;9.756;2022-09-09T06:00:28;16.30;13.90
3208;DHT22;1616;52.394;9.756;2022-09-09T06:02:57;16.40;14.40
3208;DHT22;1616;52.394;9.756;2022-09-09T06:05:22;16.50;15.00
3208;DHT22;1616;52.394;9.756;2022-09-09T06:07:52;16.50;15.30
3208;DHT22;1616;52.394;9.756;2022-09-09T06:10:19;16.50;15.30
3208;DHT22;1616;52.394;9.756;2022-09-09T06:12:44;16.50;15.10
3208;DHT22;1616;52.394;9.756;2022-09-09T06:15:10;16.50;15.30
3208;DHT22;1616;52.394;9.756;2022-09-09T06:17:35;16.60;15.60
3208;DHT22;1616;52.394;9.756;2022-09-09T06:20:02;16.60;16.00
3208;DHT22;1616;52.394;9.756;2022-09-09T06:22:27;16.60;16.00
3208;DHT22;1616;52.394;9.756;2022-09-09T06:24:53;16.60;15.80
3208;DHT22;1616;52.394;9.756;2022-09-09T06:27:19;16.60;16.00
3208;DHT22;1616;52.394;9.756;2022-09-09T06:29:44;16.70;16.10
3208;DHT22;1616;52.394;9.756;2022-09-09T06:32:10;16.70;16.20
3208;DHT22;1616;52.394;9.756;2022-09-09T06:34:35;16.80;16.40
3208;DHT22;1616;52.394;9.756;2022-09-09T06:37:02;16.90;16.20
3208;DHT22;1616;52.394;9.756;2022-09-09T06:39:27;16.90;16.20
3208;DHT22;1616;52.394;9.756;2022-09-09T06:41:53;17.00;16.30
3208;DHT22;1616;52.394;9.756;2022-09-09T06:44:20;17.70;16.90
3208;DHT22;1616;52.394;9.756;2022-09-09T06:46:46;17.10;16.40
3208;DHT22;1616;52.394;9.756;2022-09-09T06:49:13;17.10;16.40
3208;DHT22;1616;52.394;9.756;2022-09-09T06:51:39;17.10;16.30
3208;DHT22;1616;52.394;9.756;2022-09-09T06:54:08;17.10;16.40
3208;DHT22;1616;52.394;9.756;2022-09-09T06:56:36;17.10;16.70
3208;DHT22;1616;52.394;9.756;2022-09-09T06:59:05;17.10;18.20
3208;DHT22;1616;52.394;9.756;2022-09-09T07:01:36;17.30;20.30
3208;DHT22;1616;52.394;9.756;2022-09-09T07:04:03;17.50;20.90
3208;DHT22;1616;52.394;9.756;2022-09-09T07:06:32;17.60;20.70
3208;DHT22;1616;52.394;9.756;2022-09-09T07:09:02;17.90;22.90
3208;DHT22;1616;52.394;9.756;2022-09-09T07:11:36;18.20;24.10
3208;DHT22;1616;52.394;9.756;2022-09-09T07:14:02;18.70;25.70
3208;DHT22;1616;52.394;9.756;2022-09-09T07:16:28;19.10;25.80
3208;DHT22;1616;52.394;9.756;2022-09-09T07:18:54;19.70;31.50
3208;DHT22;1616;52.394;9.756;2022-09-09T07:21:25;20.80;36.90
3208;DHT22;1616;52.394;9.756;2022-09-09T07:23:52;22.10;38.50
3208;DHT22;1616;52.394;9.756;2022-09-09T07:26:20;23.40;39.80
3208;DHT22;1616;52.394;9.756;2022-09-09T07:28:46;24.50;34.90
3208;DHT22;1616;52.394;9.756;2022-09-09T07:31:20;25.40;22.70
3208;DHT22;1616;52.394;9.756;2022-09-09T07:33:48;26.30;11.10
3208;DHT22;1616;52.394;9.756;2022-09-09T07:36:16;27.00;7.40
3208;DHT22;1616;52.394;9.756;2022-09-09T07:38:45;27.50;2.60
3208;DHT22;1616;52.394;9.756;2022-09-09T07:41:14;28.10;1.00
3208;DHT22;1616;52.394;9.756;2022-09-09T07:43:42;28.40;1.00
3208;DHT22;1616;52.394;9.756;2022-09-09T07:46:09;28.80;1.00
3208;DHT22;1616;52.394;9.756;2022-09-09T07:48:35;29.30;1.00
3208;DHT22;1616;52.394;9.756;2022-09-09T07:51:22;29.80;1.00
3208;DHT22;1616;52.394;9.756;2022-09-09T07:53:48;30.10;1.00
3208;DHT22;1616;52.394;9.756;2022-09-09T07:56:17;30.30;1.00
3208;DHT22;1616;52.394;9.756;2022-09-09T07:58:46;30.30;1.00
3208;DHT22;1616;52.394;9.756;2022-09-09T08:01:17;30.40;1.00
3208;DHT22;1616;52.394;9.756;2022-09-09T08:03:46;30.50;1.00
3208;DHT22;1616;52.394;9.756;2022-09-09T08:06:13;30.80;1.00
3208;DHT22;1616;52.394;9.756;2022-09-09T08:08:39;31.00;1.00
3208;DHT22;1616;52.394;9.756;2022-09-09T08:11:14;30.90;1.00
3208;DHT22;1616;52.394;9.756;2022-09-09T08:13:42;30.30;1.00
3208;DHT22;1616;52.394;9.756;2022-09-09T08:16:14;29.80;1.00
3208;DHT22;1616;52.394;9.756;2022-09-09T08:18:41;29.50;1.00
3208;DHT22;1616;52.394;9.756;2022-09-09T08:21:16;29.10;1.00
3208;DHT22;1616;52.394;9.756;2022-09-09T08:23:45;28.60;1.00
3208;DHT22;1616;52.394;9.756;2022-09-09T08:26:16;28.20;1.00
3208;DHT22;1616;52.394;9.756;2022-09-09T08:28:43;28.10;1.00
3208;DHT22;1616;52.394;9.756;2022-09-09T08:31:15;28.30;1.00
3208;DHT22;1616;52.394;9.756;2022-09-09T08:33:42;28.80;1.00
3208;DHT22;1616;52.394;9.756;2022-09-09T08:36:13;29.00;1.00
3208;DHT22;1616;52.394;9.756;2022-09-09T08:38:41;28.80;1.00
3208;DHT22;1616;52.394;9.756;2022-09-09T08:50:35;26.10;1.00
3208;DHT22;1616;52.394;9.756;2022-09-09T08:53:01;25.60;1.00
3208;DHT22;1616;52.394;9.756;2022-09-09T08:55:49;25.00;1.00
3208;DHT22;1616;52.394;9.756;2022-09-09T08:58:19;24.60;1.00
3208;DHT22;1616;52.394;9.756;2022-09-09T09:01:13;24.40;1.00
3208;DHT22;1616;52.394;9.756;2022-09-09T09:03:59;24.20;1.00
3208;DHT22;1616;52.394;9.756;2022-09-09T09:11:59;24.00;1.00
3208;DHT22;1616;52.394;9.756;2022-09-09T09:14:28;24.00;1.00
3208;DHT22;1616;52.394;9.756;2022-09-09T09:17:19;24.10;1.00
3208;DHT22;1616;52.394;9.756;2022-09-09T09:19:47;24.30;1.00
3208;DHT22;1616;52.394;9.756;2022-09-09T09:22:37;24.60;1.00
3208;DHT22;1616;52.394;9.756;2022-09-09T09:27:57;25.30;1.00
3208;DHT22;1616;52.394;9.756;2022-09-09T09:30:35;25.50;1.00
3208;DHT22;1616;52.394;9.756;2022-09-09T09:33:22;25.60;1.00
3208;DHT22;1616;52.394;9.756;2022-09-09T09:35:50;25.70;1.00
3208;DHT22;1616;52.394;9.756;2022-09-09T09:38:20;25.90;1.00
3208;DHT22;1616;52.394;9.756;2022-09-09T09:40:58;26.00;1.00
3208;DHT22;1616;52.394;9.756;2022-09-09T09:43:31;26.10;1.00
3208;DHT22;1616;52.394;9.756;2022-09-09T09:45:57;26.20;1.00
3208;DHT22;1616;52.394;9.756;2022-09-09T09:48:24;26.30;1.00
3208;DHT22;1616;52.394;9.756;2022-09-09T09:51:03;26.40;1.00
3208;DHT22;1616;52.394;9.756;2022-09-09T09:53:34;26.70;1.00
3208;DHT22;1616;52.394;9.756;2022-09-09T09:56:09;27.20;1.00
3208;DHT22;1616;52.394;9.756;2022-09-09T10:01:27;28.00;1.00
3208;DHT22;1616;52.394;9.756;2022-09-09T10:04:17;28.20;1.00
3208;DHT22;1616;52.394;9.756;2022-09-09T10:06:44;28.10;1.00
3208;DHT22;1616;52.394;9.756;2022-09-09T10:09:28;27.90;1.00
3208;DHT22;1616;52.394;9.756;2022-09-09T10:20:16;29.10;1.00
3208;DHT22;1616;52.394;9.756;2022-09-09T10:22:50;30.00;1.00
3208;DHT22;1616;52.394;9.756;2022-09-09T10:25:52;30.60;1.00
3208;DHT22;1616;52.394;9.756;2022-09-09T10:28:31;31.10;1.00
3208;DHT22;1616;52.394;9.756;2022-09-09T10:31:12;31.20;1.00
3208;DHT22;1616;52.394;9.756;2022-09-09T10:33:51;31.20;1.00
3208;DHT22;1616;52.394;9.756;2022-09-09T10:36:25;31.00;1.00
3208;DHT22;1616;52.394;9.756;2022-09-09T10:50:12;27.20;1.00
3208;DHT22;1616;52.394;9.756;2022-09-09T10:55:24;26.10;1.00
3208;DHT22;1616;52.394;9.756;2022-09-09T10:57:53;25.60;1.00
3208;DHT22;1616;52.394;9.756;2022-09-09T11:00:39;25.20;1.00
3208;DHT22;1616;52.394;9.756;2022-09-09T11:03:05;24.70;1.00
3208;DHT22;1616;52.394;9.756;2022-09-09T11:05:44;24.40;1.00
3208;DHT22;1616;52.394;9.756;2022-09-09T11:08:20;24.20;1.00
3208;DHT22;1616;52.394;9.756;2022-09-09T11:11:21;24.00;1.00
3208;DHT22;1616;52.394;9.756;2022-09-09T11:14:14;23.90;1.00
3208;DHT22;1616;52.394;9.756;2022-09-09T11:16:52;23.60;1.00
3208;DHT22;1616;52.394;9.756;2022-09-09T11:19:35;23.40;1.00
3208;DHT22;1616;52.394;9.756;2022-09-09T11:22:07;23.10;1.00
3208;DHT22;1616;52.394;9.756;2022-09-09T11:24:38;22.80;1.00
3208;DHT22;1616;52.394;9.756;2022-09-09T11:27:31;22.60;1.00
3208;DHT22;1616;52.394;9.756;2022-09-09T11:35:52;21.40;1.00
3208;DHT22;1616;52.394;9.756;2022-09-09T11:38:25;20.90;1.00
3208;DHT22;1616;52.394;9.756;2022-09-09T11:41:10;20.50;1.00
3208;DHT22;1616;52.394;9.756;2022-09-09T11:46:07;19.50;1.00
3208;DHT22;1616;52.394;9.756;2022-09-09T11:48:36;19.00;1.00
3208;DHT22;1616;52.394;9.756;2022-09-09T11:51:09;18.60;1.00
3208;DHT22;1616;52.394;9.756;2022-09-09T11:53:48;18.10;1.00
3208;DHT22;1616;52.394;9.756;2022-09-09T11:59:02;17.50;1.00
3208;DHT22;1616;52.394;9.756;2022-09-09T12:01:41;17.20;1.00
3208;DHT22;1616;52.394;9.756;2022-09-09T12:06:51;16.80;1.00
3208;DHT22;1616;52.394;9.756;2022-09-09T12:09:43;16.70;1.00
3208;DHT22;1616;52.394;9.756;2022-09-09T12:17:23;16.50;1.00
3208;DHT22;1616;52.394;9.756;2022-09-09T12:20:23;16.50;1.00
3208;DHT22;1616;52.394;9.756;2022-09-09T12:23:07;16.50;1.00
3208;DHT22;1616;52.394;9.756;2022-09-09T12:25:53;16.50;1.00
3208;DHT22;1616;52.394;9.756;2022-09-09T12:28:46;16.60;1.00
3208;DHT22;1616;52.394;9.756;2022-09-09T12:34:16;17.20;4.10
3208;DHT22;1616;52.394;9.756;2022-09-09T12:36:44;17.50;4.00
3208;DHT22;1616;52.394;9.756;2022-09-09T12:39:34;17.90;4.10
3208;DHT22;1616;52.394;9.756;2022-09-09T12:42:01;18.30;4.30
3208;DHT22;1616;52.394;9.756;2022-09-09T12:44:29;18.70;4.50
3208;DHT22;1616;52.394;9.756;2022-09-09T12:46:58;19.20;4.40
3208;DHT22;1616;52.394;9.756;2022-09-09T12:49:35;19.70;3.40
3208;DHT22;1616;52.394;9.756;2022-09-09T12:52:07;20.30;1.70
3208;DHT22;1616;52.394;9.756;2022-09-09T12:54:36;20.80;1.00
3208;DHT22;1616;52.394;9.756;2022-09-09T12:57:03;21.60;1.00
3208;DHT22;1616;52.394;9.756;2022-09-09T12:59:40;22.30;1.00
3208;DHT22;1616;52.394;9.756;2022-09-09T13:02:21;22.80;1.00
3208;DHT22;1616;52.394;9.756;2022-09-09T13:04:47;23.00;1.00
3208;DHT22;1616;52.394;9.756;2022-09-09T13:07:13;23.20;1.00
3208;DHT22;1616;52.394;9.756;2022-09-09T13:09:41;23.30;1.00
3208;DHT22;1616;52.394;9.756;2022-09-09T13:12:21;23.20;1.00
3208;DHT22;1616;52.394;9.756;2022-09-09T13:14:51;23.10;1.00
3208;DHT22;1616;52.394;9.756;2022-09-09T13:17:22;23.00;1.00
3208;DHT22;1616;52.394;9.756;2022-09-09T13:19:48;22.80;1.00
3208;DHT22;1616;52.394;9.756;2022-09-09T13:25:02;22.60;1.00
3208;DHT22;1616;52.394;9.756;2022-09-09T13:27:34;22.60;1.00
3208;DHT22;1616;52.394;9.756;2022-09-09T13:30:36;22.40;1.00
3208;DHT22;1616;52.394;9.756;2022-09-09T13:35:52;22.30;1.00
3208;DHT22;1616;52.394;9.756;2022-09-09T13:38:19;22.10;1.00
3208;DHT22;1616;52.394;9.756;2022-09-09T13:41:02;22.10;1.00
3208;DHT22;1616;52.394;9.756;2022-09-09T13:43:43;22.00;1.00
3208;DHT22;1616;52.394;9.756;2022-09-09T13:46:34;21.90;1.00
3208;DHT22;1616;52.394;9.756;2022-09-09T13:51:40;22.00;1.00
3208;DHT22;1616;52.394;9.756;2022-09-09T13:54:11;22.00;1.00
3208;DHT22;1616;52.394;9.756;2022-09-09T13:56:38;22.00;1.00
3208;DHT22;1616;52.394;9.756;2022-09-09T13:59:08;22.00;1.00
3208;DHT22;1616;52.394;9.756;2022-09-09T14:01:35;22.10;1.00
3208;DHT22;1616;52.394;9.756;2022-09-09T14:04:00;22.10;1.00
3208;DHT22;1616;52.394;9.756;2022-09-09T14:06:26;22.20;1.00
3208;DHT22;1616;52.394;9.756;2022-09-09T14:08:52;22.10;1.00
3208;DHT22;1616;52.394;9.756;2022-09-09T14:11:20;22.10;1.00
3208;DHT22;1616;52.394;9.756;2022-09-09T14:13:47;22.10;1.00
3208;DHT22;1616;52.394;9.756;2022-09-09T14:16:16;22.10;1.00
3208;DHT22;1616;52.394;9.756;2022-09-09T14:18:43;22.10;1.00
3208;DHT22;1616;52.394;9.756;2022-09-09T14:21:10;22.20;1.00
3208;DHT22;1616;52.394;9.756;2022-09-09T14:23:37;22.30;1.00
3208;DHT22;1616;52.394;9.756;2022-09-09T14:26:07;22.40;1.00
3208;DHT22;1616;52.394;9.756;2022-09-09T14:28:33;22.40;1.00
3208;DHT22;1616;52.394;9.756;2022-09-09T14:31:03;22.40;1.00
3208;DHT22;1616;52.394;9.756;2022-09-09T14:33:29;22.50;1.00
3208;DHT22;1616;52.394;9.756;2022-09-09T14:35:57;22.50;1.00
3208;DHT22;1616;52.394;9.756;2022-09-09T14:38:23;22.60;1.00
3208;DHT22;1616;52.394;9.756;2022-09-09T14:40:49;22.50;1.00
3208;DHT22;1616;52.394;9.756;2022-09-09T14:43:15;22.60;1.00
3208;DHT22;1616;52.394;9.756;2022-09-09T14:45:41;22.70;1.00
3208;DHT22;1616;52.394;9.756;2022-09-09T14:48:06;22.80;1.00
3208;DHT22;1616;52.394;9.756;2022-09-09T14:50:32;22.80;1.00
3208;DHT22;1616;52.394;9.756;2022-09-09T14:52:57;23.00;1.00
3208;DHT22;1616;52.394;9.756;2022-09-09T14:55:23;23.10;1.00
3208;DHT22;1616;52.394;9.756;2022-09-09T14:57:49;23.20;1.00
3208;DHT22;1616;52.394;9.756;2022-09-09T15:00:15;23.30;1.00
3208;DHT22;1616;52.394;9.756;2022-09-09T15:02:41;23.30;1.00
3208;DHT22;1616;52.394;9.756;2022-09-09T15:05:07;23.40;1.00
3208;DHT22;1616;52.394;9.756;2022-09-09T15:07:33;23.50;1.00
3208;DHT22;1616;52.394;9.756;2022-09-09T15:09:59;23.50;1.00
3208;DHT22;1616;52.394;9.756;2022-09-09T15:12:25;23.60;1.00
3208;DHT22;1616;52.394;9.756;2022-09-09T15:14:50;23.60;1.00
3208;DHT22;1616;52.394;9.756;2022-09-09T15:17:16;23.60;1.00
3208;DHT22;1616;52.394;9.756;2022-09-09T15:19:42;23.50;1.00
3208;DHT22;1616;52.394;9.756;2022-09-09T15:22:08;23.40;1.00
3208;DHT22;1616;52.394;9.756;2022-09-09T15:24:34;23.40;1.00
3208;DHT22;1616;52.394;9.756;2022-09-09T15:27:01;23.40;1.00
3208;DHT22;1616;52.394;9.756;2022-09-09T15:29:27;23.40;1.00
3208;DHT22;1616;52.394;9.756;2022-09-09T15:31:54;23.30;1.00
3208;DHT22;1616;52.394;9.756;2022-09-09T15:34:20;23.10;1.00
3208;DHT22;1616;52.394;9.756;2022-09-09T15:36:46;23.10;1.00
3208;DHT22;1616;52.394;9.756;2022-09-09T15:39:16;23.00;1.00
3208;DHT22;1616;52.394;9.756;2022-09-09T15:41:46;23.00;1.00
3208;DHT22;1616;52.394;9.756;2022-09-09T15:44:12;23.00;1.00
3208;DHT22;1616;52.394;9.756;2022-09-09T15:46:46;23.00;1.00
3208;DHT22;1616;52.394;9.756;2022-09-09T15:49:16;23.00;1.00
3208;DHT22;1616;52.394;9.756;2022-09-09T15:51:47;22.90;1.00
3208;DHT22;1616;52.394;9.756;2022-09-09T15:54:17;23.10;1.00
3208;DHT22;1616;52.394;9.756;2022-09-09T15:56:44;23.10;1.00
3208;DHT22;1616;52.394;9.756;2022-09-09T15:59:10;23.10;1.00
3208;DHT22;1616;52.394;9.756;2022-09-09T16:01:38;23.10;1.00
3208;DHT22;1616;52.394;9.756;2022-09-09T16:04:05;23.10;1.00
3208;DHT22;1616;52.394;9.756;2022-09-09T16:06:32;23.00;1.00
3208;DHT22;1616;52.394;9.756;2022-09-09T16:08:59;23.00;1.00
3208;DHT22;1616;52.394;9.756;2022-09-09T16:11:29;23.00;1.00
3208;DHT22;1616;52.394;9.756;2022-09-09T16:13:58;22.90;1.00
3208;DHT22;1616;52.394;9.756;2022-09-09T16:16:28;22.80;1.00
3208;DHT22;1616;52.394;9.756;2022-09-09T16:18:58;22.80;1.00
3208;DHT22;1616;52.394;9.756;2022-09-09T16:23:55;22.70;1.00
3208;DHT22;1616;52.394;9.756;2022-09-09T16:26:22;22.60;1.00
3208;DHT22;1616;52.394;9.756;2022-09-09T16:28:48;22.60;1.00
3208;DHT22;1616;52.394;9.756;2022-09-09T16:31:20;22.60;1.00
3208;DHT22;1616;52.394;9.756;2022-09-09T16:33:46;22.60;1.00
3208;DHT22;1616;52.394;9.756;2022-09-09T16:36:15;22.50;1.00
3208;DHT22;1616;52.394;9.756;2022-09-09T16:38:42;22.50;1.00
3208;DHT22;1616;52.394;9.756;2022-09-09T16:41:12;22.50;1.00
3208;DHT22;1616;52.394;9.756;2022-09-09T16:43:39;22.50;1.00
3208;DHT22;1616;52.394;9.756;2022-09-09T16:46:13;22.40;1.00
3208;DHT22;1616;52.394;9.756;2022-09-09T16:48:41;22.30;1.00
3208;DHT22;1616;52.394;9.756;2022-09-09T16:51:11;22.20;1.00
3208;DHT22;1616;52.394;9.756;2022-09-09T16:53:37;22.20;1.00
3208;DHT22;1616;52.394;9.756;2022-09-09T16:56:06;22.10;1.00
3208;DHT22;1616;52.394;9.756;2022-09-09T16:58:32;22.10;1.00
3208;DHT22;1616;52.394;9.756;2022-09-09T17:00:58;22.10;1.00
3208;DHT22;1616;52.394;9.756;2022-09-09T17:03:24;22.00;1.00
3208;DHT22;1616;52.394;9.756;2022-09-09T17:05:50;22.00;1.00
3208;DHT22;1616;52.394;9.756;2022-09-09T17:08:16;22.00;1.00
3208;DHT22;1616;52.394;9.756;2022-09-09T17:10:41;22.00;1.00
3208;DHT22;1616;52.394;9.756;2022-09-09T17:13:08;21.90;1.00
3208;DHT22;1616;52.394;9.756;2022-09-09T17:15:38;21.90;1.00
3208;DHT22;1616;52.394;9.756;2022-09-09T17:18:05;21.90;1.00
3208;DHT22;1616;52.394;9.756;2022-09-09T17:20:34;21.90;1.00
3208;DHT22;1616;52.394;9.756;2022-09-09T17:23:00;21.90;1.00
3208;DHT22;1616;52.394;9.756;2022-09-09T17:25:25;21.90;1.00
3208;DHT22;1616;52.394;9.756;2022-09-09T17:27:51;21.80;1.00
3208;DHT22;1616;52.394;9.756;2022-09-09T17:30:18;21.60;1.00
3208;DHT22;1616;52.394;9.756;2022-09-09T17:32:44;21.40;1.00
3208;DHT22;1616;52.394;9.756;2022-09-09T17:35:12;21.20;1.00
3208;DHT22;1616;52.394;9.756;2022-09-09T17:37:37;21.10;1.00
3208;DHT22;1616;52.394;9.756;2022-09-09T17:40:03;20.90;1.00
3208;DHT22;1616;52.394;9.756;2022-09-09T17:42:29;20.80;1.00
3208;DHT22;1616;52.394;9.756;2022-09-09T17:44:55;20.70;1.00
3208;DHT22;1616;52.394;9.756;2022-09-09T17:47:21;20.60;1.00
3208;DHT22;1616;52.394;9.756;2022-09-09T17:49:47;20.60;1.00
3208;DHT22;1616;52.394;9.756;2022-09-09T17:52:13;20.60;1.00
3208;DHT22;1616;52.394;9.756;2022-09-09T17:54:40;20.40;1.00
3208;DHT22;1616;52.394;9.756;2022-09-09T17:57:06;20.40;1.00
3208;DHT22;1616;52.394;9.756;2022-09-09T17:59:32;20.20;1.00
3208;DHT22;1616;52.394;9.756;2022-09-09T18:01:58;19.90;1.00
3208;DHT22;1616;52.394;9.756;2022-09-09T18:04:24;19.80;1.00
3208;DHT22;1616;52.394;9.756;2022-09-09T18:06:51;19.70;1.00
3208;DHT22;1616;52.394;9.756;2022-09-09T18:09:22;19.70;1.00
3208;DHT22;1616;52.394;9.756;2022-09-09T18:11:50;19.70;1.00
3208;DHT22;1616;52.394;9.756;2022-09-09T18:14:21;19.70;1.00
3208;DHT22;1616;52.394;9.756;2022-09-09T18:16:48;19.70;1.00
3208;DHT22;1616;52.394;9.756;2022-09-09T18:19:17;19.70;1.00